createdAt,value
2023-04-23T00:03:24.069Z,12.40
2023-04-23T00:08:27.191Z,12.50
2023-04-23T00:13:29.235Z,12.30
2023-04-23T00:18:31.045Z,12.20
2023-04-23T00:23:32.831Z,12.20
2023-04-23T00:28:34.642Z,12.10
2023-04-23T00:33:36.848Z,12.00
2023-04-23T00:38:38.701Z,11.90
2023-04-23T00:43:40.960Z,11.80
2023-04-23T00:48:43.065Z,11.80
2023-04-23T00:53:44.879Z,11.70
2023-04-23T00:58:46.741Z,11.70
2023-04-23T01:03:49.553Z,11.60
2023-04-23T01:08:52.147Z,11.60
2023-04-23T01:13:53.963Z,11.40
2023-04-23T01:18:56.805Z,11.30
2023-04-23T01:23:58.618Z,11.30
2023-04-23T01:29:01.104Z,11.20
2023-04-23T01:34:03.290Z,11.10
2023-04-23T01:39:05.731Z,11.00
2023-04-23T01:44:07.516Z,11.10
2023-04-23T01:49:09.377Z,11.00
2023-04-23T01:54:11.239Z,10.90
2023-04-23T01:59:13.062Z,10.90
2023-04-23T02:04:15.892Z,10.90
2023-04-23T02:09:17.972Z,10.80
2023-04-23T02:14:19.760Z,10.90
2023-04-23T02:19:21.563Z,10.80
2023-04-23T02:24:23.356Z,10.70
2023-04-23T02:29:25.243Z,10.60
2023-04-23T02:34:27.099Z,10.40
2023-04-23T02:39:28.931Z,10.40
2023-04-23T02:44:30.736Z,10.40
2023-04-23T02:54:36.867Z,10.20
2023-04-23T02:59:38.678Z,10.10
2023-04-23T03:04:40.722Z,9.50
2023-04-23T03:09:43.169Z,9.80
2023-04-23T03:14:45.025Z,9.70
2023-04-23T03:19:46.864Z,9.60
2023-04-23T03:24:48.650Z,9.60
2023-04-23T03:29:50.491Z,9.50
2023-04-23T03:34:52.306Z,9.40
2023-04-23T03:39:56.950Z,9.30
2023-04-23T03:44:59.130Z,9.20
2023-04-23T03:50:00.924Z,9.10
2023-04-23T03:55:02.982Z,9.10
2023-04-23T04:00:08.306Z,9.00
2023-04-23T04:05:13.503Z,9.00
2023-04-23T04:10:15.820Z,8.90
2023-04-23T04:15:19.846Z,8.90
2023-04-23T04:20:21.655Z,8.80
2023-04-23T04:25:24.170Z,8.60
2023-04-23T04:30:26.853Z,8.60
2023-04-23T04:35:28.723Z,8.70
2023-04-23T04:40:30.848Z,8.80
2023-04-23T04:45:32.685Z,8.90
2023-04-23T04:50:34.594Z,9.10
2023-04-23T04:55:36.446Z,9.40
2023-04-23T05:00:38.369Z,9.60
2023-04-23T05:05:40.268Z,9.90
2023-04-23T05:10:43.577Z,10.50
2023-04-23T05:15:48.516Z,11.00
2023-04-23T05:20:50.896Z,11.60
2023-04-23T05:25:55.931Z,12.10
2023-04-23T05:30:58.380Z,12.40
2023-04-23T05:36:02.368Z,12.90
2023-04-23T05:41:04.397Z,13.00
2023-04-23T05:46:07.548Z,13.50
2023-04-23T05:51:09.667Z,14.00
2023-04-23T05:56:11.525Z,14.50
2023-04-23T06:01:13.594Z,14.80
2023-04-23T06:06:15.471Z,14.90
2023-04-23T06:11:17.872Z,15.40
2023-04-23T06:16:19.904Z,15.60
2023-04-23T06:21:22.495Z,15.70
2023-04-23T06:26:24.330Z,15.70
2023-04-23T06:31:26.359Z,16.10
2023-04-23T06:36:28.308Z,16.50
2023-04-23T06:41:30.217Z,16.70
2023-04-23T06:46:32.133Z,16.70
2023-04-23T06:51:34.847Z,16.70
2023-04-23T06:56:36.756Z,16.90
2023-04-23T07:01:38.818Z,17.30
2023-04-23T07:06:40.713Z,17.50
2023-04-23T07:11:42.878Z,17.80
2023-04-23T07:16:44.793Z,17.60
2023-04-23T07:21:46.720Z,17.80
2023-04-23T07:26:48.512Z,18.10
2023-04-23T07:31:50.527Z,18.30
2023-04-23T07:36:52.527Z,18.40
2023-04-23T07:41:54.432Z,18.90
2023-04-23T07:46:56.515Z,19.80
2023-04-23T07:51:58.336Z,20.00
2023-04-23T07:57:00.164Z,19.80
2023-04-23T08:02:02.014Z,19.60
2023-04-23T08:07:03.833Z,19.60
2023-04-23T08:12:05.815Z,19.90
2023-04-23T08:17:07.776Z,20.40
2023-04-23T08:22:10.659Z,20.70
2023-04-23T08:27:12.668Z,21.00
2023-04-23T08:32:14.600Z,20.90
2023-04-23T08:37:27.296Z,21.30
2023-04-23T08:42:57.582Z,21.30
2023-04-23T08:48:02.340Z,21.90
2023-04-23T08:53:06.436Z,22.00
2023-04-23T08:58:08.362Z,22.40
2023-04-23T09:08:12.979Z,23.00
2023-04-23T09:13:15.132Z,23.00
2023-04-23T09:18:17.551Z,23.30
2023-04-23T09:23:21.844Z,24.50
2023-04-23T09:28:37.793Z,23.90
2023-04-23T09:33:39.918Z,23.50
2023-04-23T09:38:41.777Z,23.40
2023-04-23T09:43:43.647Z,23.40
2023-04-23T09:48:45.952Z,24.40
2023-04-23T09:58:50.002Z,25.20
2023-04-23T10:03:53.481Z,25.20
2023-04-23T10:08:58.874Z,25.70
2023-04-23T10:14:00.859Z,25.70
2023-04-23T10:19:03.637Z,25.30
2023-04-23T10:24:06.388Z,24.50
2023-04-23T10:29:15.088Z,23.90
2023-04-23T10:34:17.559Z,23.70
2023-04-23T10:39:29.976Z,23.70
2023-04-23T10:44:57.423Z,23.50
2023-04-23T10:49:58.520Z,23.60
2023-04-23T10:55:00.846Z,24.00
2023-04-23T11:00:04.521Z,23.90
2023-04-23T11:05:09.062Z,24.40
2023-04-23T11:10:14.908Z,24.90
2023-04-23T11:15:19.413Z,24.70
2023-04-23T11:20:22.346Z,25.60
2023-04-23T11:25:26.884Z,25.50
2023-04-23T11:30:29.721Z,25.10
2023-04-23T11:35:39.569Z,24.70
2023-04-23T11:40:42.729Z,24.60
2023-04-23T11:45:44.785Z,24.10
2023-04-23T11:50:46.771Z,23.70
2023-04-23T11:55:49.303Z,23.40
2023-04-23T12:00:58.098Z,23.40
2023-04-23T12:06:00.053Z,23.70
2023-04-23T12:11:03.125Z,23.70
2023-04-23T12:16:05.664Z,23.40
2023-04-23T12:21:18.764Z,23.10
2023-04-23T12:26:21.348Z,23.10
2023-04-23T12:31:25.436Z,23.10
2023-04-23T12:36:29.836Z,23.30
2023-04-23T12:41:33.450Z,23.50
2023-04-23T12:46:35.663Z,23.70
2023-04-23T12:51:40.230Z,23.70
2023-04-23T12:56:49.137Z,23.70
2023-04-23T13:01:54.529Z,23.60
2023-04-23T13:06:57.089Z,23.50
2023-04-23T13:12:00.352Z,23.50
2023-04-23T13:17:07.388Z,23.80
2023-04-23T13:22:11.721Z,23.80
2023-04-23T13:27:21.210Z,23.90
2023-04-23T13:32:35.006Z,23.80
2023-04-23T13:37:42.858Z,23.60
2023-04-23T13:42:44.889Z,23.70
2023-04-23T13:47:47.107Z,23.80
2023-04-23T13:52:48.978Z,23.70
2023-04-23T13:57:51.003Z,23.50
2023-04-23T14:02:52.863Z,23.10
2023-04-23T14:07:54.957Z,23.00
2023-04-23T14:12:57.156Z,22.90
2023-04-23T14:17:59.824Z,22.80
2023-04-23T14:23:04.093Z,22.70
2023-04-23T14:28:24.359Z,22.60
2023-04-23T14:33:26.373Z,22.50
2023-04-23T14:38:28.190Z,22.30
2023-04-23T14:43:31.248Z,22.30
2023-04-23T14:48:35.838Z,22.20
2023-04-23T14:53:37.753Z,22.30
2023-04-23T14:58:39.991Z,22.20
2023-04-23T15:03:44.621Z,22.20
2023-04-23T15:08:48.765Z,22.10
2023-04-23T15:14:03.687Z,22.00
2023-04-23T15:19:06.652Z,22.00
2023-04-23T15:24:08.690Z,22.00
2023-04-23T15:29:10.743Z,21.90
2023-04-23T15:34:12.583Z,22.00
2023-04-23T15:39:14.627Z,21.90
2023-04-23T15:44:18.149Z,21.70
2023-04-23T15:49:20.028Z,21.70
2023-04-23T15:54:21.939Z,21.60
2023-04-23T15:59:23.770Z,21.60
2023-04-23T16:04:25.863Z,21.50
2023-04-23T16:09:28.003Z,21.40
2023-04-23T16:14:30.244Z,21.30
2023-04-23T16:19:32.036Z,21.30
2023-04-23T16:24:35.057Z,21.20
2023-04-23T16:29:37.753Z,21.10
2023-04-23T16:34:39.668Z,21.00
2023-04-23T16:39:45.405Z,20.90
2023-04-23T16:44:47.527Z,20.90
2023-04-23T16:56:19.223Z,20.30
2023-04-23T17:01:22.255Z,20.60
2023-04-23T17:06:31.833Z,20.30
2023-04-23T17:11:59.587Z,20.50
2023-04-23T17:17:14.820Z,20.10
2023-04-23T17:22:23.439Z,19.90
2023-04-23T17:27:25.346Z,21.00
2023-04-23T17:32:27.190Z,19.60
2023-04-23T17:37:29.021Z,19.60
2023-04-23T17:42:30.794Z,19.50
2023-04-23T17:47:32.744Z,19.20
2023-04-23T17:52:34.562Z,19.00
2023-04-23T17:57:36.455Z,18.70
2023-04-23T18:02:41.872Z,18.60
2023-04-23T18:07:44.772Z,18.40
2023-04-23T18:12:46.645Z,18.20
2023-04-23T18:17:48.527Z,18.10
2023-04-23T18:22:50.498Z,18.00
2023-04-23T18:27:52.728Z,17.90
2023-04-23T18:33:36.195Z,17.80
2023-04-23T18:38:43.213Z,17.70
2023-04-23T18:43:45.066Z,17.60
2023-04-23T18:48:59.343Z,17.50
2023-04-23T18:54:01.721Z,17.40
2023-04-23T18:59:03.709Z,17.30
2023-04-23T19:04:06.460Z,17.20
2023-04-23T19:09:08.676Z,17.10
2023-04-23T19:14:10.587Z,17.10
2023-04-23T19:19:12.974Z,16.90
2023-04-23T19:24:15.100Z,16.90
2023-04-23T19:29:16.971Z,16.80
2023-04-23T19:34:19.212Z,16.60
2023-04-23T19:39:23.447Z,16.40
2023-04-23T19:44:25.333Z,16.20
2023-04-23T19:49:27.470Z,16.20
2023-04-23T19:54:29.401Z,16.00
2023-04-23T19:59:31.207Z,15.80
2023-04-23T20:04:33.154Z,15.70
2023-04-23T20:09:35.288Z,15.60
2023-04-23T20:14:37.223Z,15.50
2023-04-23T20:19:39.870Z,15.50
2023-04-23T20:24:46.269Z,15.40
2023-04-23T20:29:48.396Z,15.40
2023-04-23T20:34:50.323Z,15.40
2023-04-23T20:39:53.194Z,15.30
2023-04-23T20:44:55.087Z,15.30
2023-04-23T20:49:56.916Z,15.30
2023-04-23T20:54:58.732Z,15.30
2023-04-23T21:00:00.810Z,15.30
2023-04-23T21:05:02.705Z,15.30
2023-04-23T21:10:05.689Z,15.30
2023-04-23T21:15:08.846Z,15.30
2023-04-23T21:20:10.902Z,15.10
2023-04-23T21:25:14.018Z,15.10
2023-04-23T21:30:32.278Z,15.00
2023-04-23T21:35:34.147Z,15.00
2023-04-23T21:40:39.634Z,15.10
2023-04-23T21:45:41.509Z,15.20
2023-04-23T21:50:43.347Z,15.20
2023-04-23T21:55:45.287Z,15.30
2023-04-23T22:00:48.033Z,15.30
2023-04-23T22:05:49.980Z,15.30
2023-04-23T22:10:51.849Z,15.20
2023-04-23T22:15:53.723Z,15.10
2023-04-23T22:20:55.521Z,15.00
2023-04-23T22:25:57.512Z,15.00
2023-04-23T22:30:59.320Z,14.90
2023-04-23T22:36:01.293Z,14.90
2023-04-23T22:41:03.226Z,14.80
2023-04-23T22:46:05.215Z,14.80
2023-04-23T22:51:07.097Z,14.80
2023-04-23T22:56:08.928Z,14.70
2023-04-23T23:01:11.053Z,14.80
2023-04-23T23:06:13.100Z,14.70
2023-04-23T23:11:15.023Z,14.70
2023-04-23T23:16:19.717Z,14.60
2023-04-23T23:21:21.610Z,14.50
2023-04-23T23:26:23.422Z,14.50
2023-04-23T23:31:25.967Z,14.40
2023-04-23T23:36:28.021Z,14.30
2023-04-23T23:41:29.814Z,14.30
2023-04-23T23:46:31.673Z,14.20
2023-04-23T23:51:34.009Z,14.10
2023-04-23T23:56:35.863Z,14.20
